createdAt,value
2022-11-24T00:01:50.064Z,13.82
2022-11-24T00:04:22.881Z,16.77
2022-11-24T00:06:56.059Z,22.40
2022-11-24T00:09:28.897Z,18.05
2022-11-24T00:12:01.970Z,16.40
2022-11-24T00:14:34.882Z,17.13
2022-11-24T00:17:08.403Z,20.70
2022-11-24T00:19:42.427Z,17.65
2022-11-24T00:22:15.469Z,14.55
2022-11-24T00:24:48.141Z,12.30
2022-11-24T00:27:21.194Z,11.13
2022-11-24T00:29:54.079Z,11.15
2022-11-24T00:32:30.957Z,11.38
2022-11-24T00:35:03.695Z,10.77
2022-11-24T00:37:36.862Z,11.68
2022-11-24T00:40:09.666Z,10.77
2022-11-24T00:42:42.819Z,10.75
2022-11-24T00:45:15.565Z,10.30
2022-11-24T00:47:49.301Z,10.68
2022-11-24T00:50:22.053Z,10.43
2022-11-24T00:52:55.064Z,10.27
2022-11-24T00:55:27.737Z,9.50
2022-11-24T00:58:01.016Z,10.23
2022-11-24T01:00:33.718Z,10.30
2022-11-24T01:03:06.848Z,9.98
2022-11-24T01:05:40.112Z,10.52
2022-11-24T01:08:13.436Z,9.90
2022-11-24T01:10:46.102Z,11.05
2022-11-24T01:13:19.188Z,11.18
2022-11-24T01:15:51.922Z,9.85
2022-11-24T01:18:25.133Z,10.98
2022-11-24T01:20:58.055Z,10.70
2022-11-24T01:23:31.291Z,11.20
2022-11-24T01:26:05.357Z,11.27
2022-11-24T01:28:41.853Z,11.23
2022-11-24T01:31:17.797Z,11.82
2022-11-24T01:33:50.998Z,11.90
2022-11-24T01:36:24.167Z,11.43
2022-11-24T01:38:57.262Z,10.30
2022-11-24T01:41:30.052Z,12.52
2022-11-24T01:44:20.231Z,13.15
2022-11-24T01:46:55.744Z,12.07
2022-11-24T01:49:46.829Z,12.27
2022-11-24T01:52:27.668Z,11.53
2022-11-24T01:55:03.088Z,11.63
2022-11-24T01:57:39.120Z,11.23
2022-11-24T02:00:13.351Z,12.13
2022-11-24T02:02:46.326Z,12.27
2022-11-24T02:05:43.168Z,11.82
2022-11-24T02:08:22.488Z,11.48
2022-11-24T02:10:55.644Z,10.80
2022-11-24T02:13:28.563Z,11.70
2022-11-24T02:16:02.506Z,12.32
2022-11-24T02:18:35.399Z,13.77
2022-11-24T02:21:08.807Z,12.45
2022-11-24T02:23:47.505Z,13.30
2022-11-24T02:26:38.928Z,13.23
2022-11-24T02:29:12.425Z,12.70
2022-11-24T02:31:48.018Z,11.65
2022-11-24T02:34:20.948Z,11.63
2022-11-24T02:36:54.338Z,10.77
2022-11-24T02:39:27.062Z,11.00
2022-11-24T02:42:02.507Z,11.30
2022-11-24T02:44:37.340Z,11.27
2022-11-24T02:47:12.087Z,11.20
2022-11-24T02:49:44.956Z,11.13
2022-11-24T02:52:18.097Z,10.88
2022-11-24T02:54:51.345Z,11.40
2022-11-24T02:57:24.489Z,10.40
2022-11-24T02:59:57.330Z,11.70
2022-11-24T03:02:30.449Z,11.82
2022-11-24T03:05:03.369Z,11.02
2022-11-24T03:07:36.501Z,11.25
2022-11-24T03:10:09.464Z,12.95
2022-11-24T03:12:42.634Z,12.55
2022-11-24T03:15:15.453Z,14.07
2022-11-24T03:17:48.685Z,15.75
2022-11-24T03:20:21.388Z,15.38
2022-11-24T03:22:54.417Z,12.93
2022-11-24T03:25:27.140Z,11.65
2022-11-24T03:28:00.307Z,12.05
2022-11-24T03:30:33.111Z,11.98
2022-11-24T03:33:07.626Z,11.55
2022-11-24T03:35:40.313Z,11.80
2022-11-24T03:38:13.378Z,11.98
2022-11-24T03:40:46.143Z,12.63
2022-11-24T03:43:19.218Z,11.85
2022-11-24T03:45:51.880Z,11.90
2022-11-24T03:48:24.922Z,12.50
2022-11-24T03:50:58.517Z,11.35
2022-11-24T03:53:32.497Z,13.07
2022-11-24T03:56:05.652Z,13.13
2022-11-24T03:58:38.929Z,12.95
2022-11-24T04:01:11.911Z,13.18
2022-11-24T04:03:44.934Z,12.82
2022-11-24T04:06:17.614Z,12.90
2022-11-24T04:08:50.708Z,11.65
2022-11-24T04:11:41.900Z,12.25
2022-11-24T04:14:15.080Z,11.77
2022-11-24T04:16:47.901Z,13.68
2022-11-24T04:19:21.032Z,14.10
2022-11-24T04:21:53.903Z,12.75
2022-11-24T04:24:26.933Z,14.32
2022-11-24T04:26:59.617Z,13.40
2022-11-24T04:29:32.665Z,13.85
2022-11-24T04:32:05.474Z,13.80
2022-11-24T04:34:38.608Z,13.73
2022-11-24T04:37:11.511Z,13.40
2022-11-24T04:39:45.652Z,14.43
2022-11-24T04:42:18.295Z,13.77
2022-11-24T04:44:51.639Z,14.00
2022-11-24T04:47:25.880Z,14.80
2022-11-24T04:49:58.998Z,14.50
2022-11-24T04:52:31.727Z,13.73
2022-11-24T04:55:04.831Z,13.30
2022-11-24T04:57:37.560Z,13.88
2022-11-24T05:00:10.995Z,14.40
2022-11-24T05:02:43.759Z,13.90
2022-11-24T05:05:16.938Z,13.50
2022-11-24T05:07:49.922Z,13.90
2022-11-24T05:10:37.933Z,14.40
2022-11-24T05:13:12.606Z,13.83
2022-11-24T05:15:45.577Z,13.10
2022-11-24T05:18:18.298Z,15.32
2022-11-24T05:20:51.328Z,15.00
2022-11-24T05:23:23.966Z,14.48
2022-11-24T05:26:03.600Z,15.63
2022-11-24T05:28:36.517Z,14.63
2022-11-24T05:31:09.687Z,14.13
2022-11-24T05:33:43.716Z,14.68
2022-11-24T05:36:35.354Z,15.07
2022-11-24T05:39:08.432Z,15.87
2022-11-24T05:41:42.159Z,15.02
2022-11-24T05:44:14.769Z,13.63
2022-11-24T05:46:48.444Z,14.82
2022-11-24T05:49:21.167Z,15.73
2022-11-24T05:51:54.057Z,14.82
2022-11-24T05:54:26.582Z,15.35
2022-11-24T05:56:59.632Z,15.38
2022-11-24T05:59:32.318Z,14.35
2022-11-24T06:02:05.270Z,15.55
2022-11-24T06:04:38.156Z,14.93
2022-11-24T06:07:14.534Z,15.27
2022-11-24T06:09:47.474Z,15.70
2022-11-24T06:12:20.826Z,13.70
2022-11-24T06:14:53.903Z,13.45
2022-11-24T06:17:26.894Z,13.83
2022-11-24T06:19:59.535Z,13.50
2022-11-24T06:22:32.810Z,13.95
2022-11-24T06:25:05.711Z,15.35
2022-11-24T06:27:38.713Z,14.75
2022-11-24T06:30:11.841Z,14.33
2022-11-24T06:32:49.680Z,14.73
2022-11-24T06:35:22.686Z,13.80
2022-11-24T06:37:55.936Z,13.50
2022-11-24T06:40:28.721Z,14.20
2022-11-24T06:43:01.791Z,15.07
2022-11-24T06:45:34.435Z,13.40
2022-11-24T06:48:07.446Z,13.67
2022-11-24T06:50:39.991Z,14.53
2022-11-24T06:53:13.034Z,12.90
2022-11-24T06:55:46.707Z,13.48
2022-11-24T06:58:20.518Z,13.48
2022-11-24T07:00:53.468Z,14.00
2022-11-24T07:03:26.742Z,13.57
2022-11-24T07:05:59.815Z,14.07
2022-11-24T07:08:32.802Z,14.90
2022-11-24T07:11:06.556Z,15.38
2022-11-24T07:13:39.502Z,14.43
2022-11-24T07:16:16.461Z,14.10
2022-11-24T07:18:51.518Z,14.23
2022-11-24T07:21:25.248Z,13.70
2022-11-24T07:23:58.420Z,13.80
2022-11-24T07:26:31.135Z,14.47
2022-11-24T07:29:05.686Z,18.90
2022-11-24T07:31:38.541Z,16.02
2022-11-24T07:34:11.588Z,14.48
2022-11-24T07:36:45.452Z,15.63
2022-11-24T07:39:18.587Z,14.43
2022-11-24T07:41:51.186Z,15.90
2022-11-24T07:44:24.090Z,13.37
2022-11-24T07:46:56.908Z,14.93
2022-11-24T07:49:30.054Z,14.45
2022-11-24T07:52:02.652Z,13.63
2022-11-24T07:54:35.719Z,12.55
2022-11-24T07:57:08.498Z,13.50
2022-11-24T07:59:41.629Z,13.73
2022-11-24T08:02:14.240Z,15.07
2022-11-24T08:04:47.207Z,14.38
2022-11-24T08:07:20.100Z,15.02
2022-11-24T08:09:53.271Z,14.65
2022-11-24T08:12:26.049Z,14.38
2022-11-24T08:14:59.020Z,13.60
2022-11-24T08:17:31.862Z,14.70
2022-11-24T08:20:04.992Z,14.02
2022-11-24T08:22:37.929Z,14.80
2022-11-24T08:25:11.078Z,13.85
2022-11-24T08:27:43.654Z,15.70
2022-11-24T08:30:16.954Z,16.08
2022-11-24T08:32:49.509Z,16.52
2022-11-24T08:35:22.567Z,15.27
2022-11-24T08:37:57.294Z,15.30
2022-11-24T08:40:33.242Z,15.50
2022-11-24T08:43:05.884Z,15.13
2022-11-24T08:45:41.702Z,14.75
2022-11-24T08:48:14.618Z,14.65
2022-11-24T08:50:48.008Z,16.38
2022-11-24T08:53:20.644Z,14.95
2022-11-24T08:55:53.673Z,13.95
2022-11-24T08:58:26.249Z,14.95
2022-11-24T09:01:06.019Z,14.95
2022-11-24T09:03:42.353Z,15.13
2022-11-24T09:06:20.339Z,15.60
2022-11-24T09:08:56.042Z,15.18
2022-11-24T09:11:29.581Z,14.50
2022-11-24T09:14:02.394Z,15.52
2022-11-24T09:16:35.527Z,13.90
2022-11-24T09:19:08.508Z,13.85
2022-11-24T09:21:41.422Z,15.47
2022-11-24T09:24:14.022Z,14.35
2022-11-24T09:26:47.855Z,15.07
2022-11-24T09:29:21.097Z,14.68
2022-11-24T09:31:54.033Z,13.88
2022-11-24T09:34:26.600Z,14.70
2022-11-24T09:36:59.959Z,13.43
2022-11-24T09:39:32.899Z,14.57
2022-11-24T09:42:26.339Z,14.50
2022-11-24T09:45:07.384Z,15.27
2022-11-24T09:47:54.684Z,16.02
2022-11-24T09:50:33.823Z,16.00
2022-11-24T09:53:11.584Z,14.50
2022-11-24T09:55:48.901Z,16.02
2022-11-24T09:58:31.781Z,15.32
2022-11-24T10:01:13.239Z,15.90
2022-11-24T10:03:48.723Z,16.90
2022-11-24T10:06:30.796Z,15.50
2022-11-24T10:09:24.229Z,15.35
2022-11-24T10:12:15.595Z,15.65
2022-11-24T10:15:07.504Z,15.95
2022-11-24T10:17:48.162Z,14.40
2022-11-24T10:20:24.285Z,14.23
2022-11-24T10:23:15.365Z,16.08
2022-11-24T10:25:48.320Z,14.13
2022-11-24T10:28:20.897Z,15.07
2022-11-24T10:30:55.244Z,15.30
2022-11-24T10:33:30.780Z,15.80
2022-11-24T10:36:08.026Z,13.68
2022-11-24T10:38:40.751Z,15.23
2022-11-24T10:41:17.069Z,14.48
2022-11-24T10:43:50.709Z,16.15
2022-11-24T10:46:25.542Z,13.82
2022-11-24T10:49:04.120Z,16.07
2022-11-24T10:51:42.967Z,15.25
2022-11-24T10:54:24.560Z,14.35
2022-11-24T10:56:58.196Z,12.87
2022-11-24T10:59:40.926Z,12.43
2022-11-24T11:02:34.264Z,14.18
2022-11-24T11:05:25.715Z,13.88
2022-11-24T11:08:20.104Z,14.57
2022-11-24T11:11:13.259Z,14.00
2022-11-24T11:14:01.559Z,13.98
2022-11-24T11:16:39.377Z,13.50
2022-11-24T11:19:55.469Z,14.25
2022-11-24T11:22:30.308Z,11.93
2022-11-24T11:25:22.486Z,13.75
2022-11-24T11:28:17.972Z,14.88
2022-11-24T11:31:20.293Z,14.27
2022-11-24T11:34:08.323Z,14.32
2022-11-24T11:36:47.901Z,14.37
2022-11-24T11:39:31.705Z,14.93
2022-11-24T11:42:53.763Z,16.33
2022-11-24T11:45:18.707Z,15.32
2022-11-24T11:47:51.818Z,16.85
2022-11-24T11:50:26.075Z,17.38
2022-11-24T11:53:08.198Z,16.52
2022-11-24T11:56:01.940Z,17.40
2022-11-24T11:58:38.581Z,17.88
2022-11-24T12:01:23.282Z,15.60
2022-11-24T12:04:05.464Z,16.73
2022-11-24T12:06:57.121Z,17.42
2022-11-24T12:09:54.682Z,17.27
2022-11-24T12:12:27.350Z,17.95
2022-11-24T12:15:11.031Z,16.15
2022-11-24T12:18:01.685Z,15.95
2022-11-24T12:20:45.777Z,16.27
2022-11-24T12:23:18.323Z,16.58
2022-11-24T12:26:11.377Z,16.88
2022-11-24T12:29:09.965Z,20.30
2022-11-24T12:31:51.884Z,17.05
2022-11-24T12:34:30.937Z,17.93
2022-11-24T12:37:22.754Z,17.10
2022-11-24T12:40:01.166Z,16.05
2022-11-24T12:42:37.033Z,14.90
2022-11-24T12:45:09.515Z,16.88
2022-11-24T12:47:51.538Z,17.23
2022-11-24T12:50:29.026Z,15.88
2022-11-24T12:53:15.940Z,16.70
2022-11-24T12:55:49.066Z,15.02
2022-11-24T12:58:28.226Z,17.33
2022-11-24T13:01:17.038Z,15.90
2022-11-24T13:03:51.226Z,15.85
2022-11-24T13:06:28.259Z,15.90
2022-11-24T13:09:11.162Z,16.33
2022-11-24T13:11:48.609Z,15.90
2022-11-24T13:14:38.007Z,15.75
2022-11-24T13:17:35.190Z,17.05
2022-11-24T13:20:21.594Z,16.38
2022-11-24T13:22:54.648Z,17.92
2022-11-24T13:25:31.805Z,16.08
2022-11-24T13:28:06.895Z,15.45
2022-11-24T13:30:46.072Z,16.55
2022-11-24T13:33:27.599Z,15.18
2022-11-24T13:36:04.469Z,14.93
2022-11-24T13:38:40.000Z,15.13
2022-11-24T13:41:31.824Z,17.00
2022-11-24T13:44:16.407Z,18.83
2022-11-24T13:47:01.587Z,18.83
2022-11-24T13:49:42.290Z,17.90
2022-11-24T13:52:33.923Z,26.23
2022-11-24T13:55:12.603Z,34.85
2022-11-24T13:57:46.651Z,34.13
2022-11-24T14:00:19.361Z,51.73
2022-11-24T14:02:53.559Z,28.10
2022-11-24T14:05:39.388Z,17.77
2022-11-24T14:08:16.896Z,30.55
2022-11-24T14:10:50.342Z,22.70
2022-11-24T14:13:27.671Z,25.27
2022-11-24T14:16:01.548Z,23.77
2022-11-24T14:18:35.209Z,51.83
2022-11-24T14:21:28.451Z,46.10
2022-11-24T14:24:12.910Z,21.15
2022-11-24T14:26:46.567Z,21.75
2022-11-24T14:29:21.660Z,23.17
2022-11-24T14:31:55.277Z,20.55
2022-11-24T14:34:29.235Z,18.08
2022-11-24T14:37:02.317Z,17.70
2022-11-24T14:39:40.535Z,18.10
2022-11-24T14:42:27.599Z,17.00
2022-11-24T14:45:01.394Z,18.83
2022-11-24T14:47:36.634Z,18.35
2022-11-24T14:50:15.654Z,17.33
2022-11-24T14:53:10.952Z,16.52
2022-11-24T14:55:43.998Z,17.58
2022-11-24T14:58:20.884Z,19.05
2022-11-24T15:01:19.830Z,18.33
2022-11-24T15:04:13.032Z,18.20
2022-11-24T15:07:05.245Z,19.40
2022-11-24T15:09:43.742Z,20.00
2022-11-24T15:12:31.336Z,19.07
2022-11-24T15:15:05.641Z,19.65
2022-11-24T15:17:45.335Z,19.27
2022-11-24T15:20:38.546Z,19.77
2022-11-24T15:23:23.239Z,19.38
2022-11-24T15:26:16.287Z,21.77
2022-11-24T15:28:49.552Z,20.58
2022-11-24T15:31:22.144Z,23.05
2022-11-24T15:33:55.067Z,22.85
2022-11-24T15:36:27.597Z,22.67
2022-11-24T15:39:00.826Z,27.63
2022-11-24T15:41:34.331Z,32.70
2022-11-24T15:44:08.162Z,31.47
2022-11-24T15:46:40.960Z,28.17
2022-11-24T15:49:14.199Z,28.48
2022-11-24T15:51:47.386Z,28.67
2022-11-24T15:54:20.378Z,30.50
2022-11-24T15:56:52.992Z,29.63
2022-11-24T15:59:26.095Z,29.80
2022-11-24T16:02:00.267Z,28.98
2022-11-24T16:04:33.930Z,27.43
2022-11-24T16:07:07.387Z,26.30
2022-11-24T16:09:40.734Z,32.03
2022-11-24T16:12:13.392Z,31.97
2022-11-24T16:14:46.219Z,30.45
2022-11-24T16:17:18.812Z,31.23
2022-11-24T16:20:00.125Z,25.02
2022-11-24T16:22:33.682Z,20.13
2022-11-24T16:25:06.813Z,22.50
2022-11-24T16:27:39.377Z,21.60
2022-11-24T16:30:13.248Z,22.27
2022-11-24T16:32:45.787Z,25.95
2022-11-24T16:35:19.435Z,26.67
2022-11-24T16:37:52.141Z,31.83
2022-11-24T16:40:25.326Z,29.35
2022-11-24T16:42:58.680Z,29.73
2022-11-24T16:45:32.106Z,29.20
2022-11-24T16:48:04.933Z,28.63
2022-11-24T16:50:38.735Z,31.13
2022-11-24T16:53:11.353Z,31.38
2022-11-24T16:55:44.379Z,32.25
2022-11-24T16:58:16.990Z,31.90
2022-11-24T17:00:50.274Z,34.88
2022-11-24T17:03:22.867Z,30.92
2022-11-24T17:05:59.162Z,35.38
2022-11-24T17:08:32.546Z,34.58
2022-11-24T17:11:08.111Z,31.98
2022-11-24T17:13:40.941Z,25.75
2022-11-24T17:16:15.211Z,25.58
2022-11-24T17:18:48.286Z,20.15
2022-11-24T17:21:22.679Z,18.38
2022-11-24T17:23:56.212Z,19.85
2022-11-24T17:26:29.445Z,20.38
2022-11-24T17:29:02.584Z,21.38
2022-11-24T17:31:40.573Z,20.45
2022-11-24T17:34:13.464Z,21.08
2022-11-24T17:36:46.529Z,23.87
2022-11-24T17:39:24.546Z,26.77
2022-11-24T17:41:58.118Z,30.10
2022-11-24T17:44:30.985Z,29.00
2022-11-24T17:47:04.091Z,31.63
2022-11-24T17:49:36.711Z,31.17
2022-11-24T17:52:09.969Z,31.40
2022-11-24T17:54:56.544Z,27.93
2022-11-24T17:57:29.852Z,32.42
2022-11-24T18:00:02.661Z,31.13
2022-11-24T18:02:45.476Z,31.25
2022-11-24T18:05:18.426Z,32.08
2022-11-24T18:07:51.404Z,34.38
2022-11-24T18:10:24.076Z,34.10
2022-11-24T18:12:59.365Z,34.08
2022-11-24T18:15:35.285Z,31.95
2022-11-24T18:18:08.435Z,35.28
2022-11-24T18:20:41.025Z,33.80
2022-11-24T18:23:14.134Z,29.75
2022-11-24T18:25:52.573Z,28.33
2022-11-24T18:28:26.077Z,25.40
2022-11-24T18:31:02.363Z,25.13
2022-11-24T18:33:39.008Z,29.53
2022-11-24T18:36:16.186Z,22.48
2022-11-24T18:38:50.026Z,22.45
2022-11-24T18:41:22.793Z,22.27
2022-11-24T18:43:56.812Z,22.00
2022-11-24T18:46:30.930Z,23.35
2022-11-24T18:49:05.104Z,21.38
2022-11-24T18:51:38.515Z,25.23
2022-11-24T18:54:11.691Z,26.08
2022-11-24T18:56:45.113Z,22.98
2022-11-24T18:59:18.412Z,22.30
2022-11-24T19:01:51.137Z,24.35
2022-11-24T19:04:25.295Z,20.98
2022-11-24T19:06:57.939Z,21.52
2022-11-24T19:09:31.112Z,21.38
2022-11-24T19:12:04.237Z,22.00
2022-11-24T19:14:37.422Z,32.08
2022-11-24T19:17:09.995Z,30.17
2022-11-24T19:19:43.291Z,34.38
2022-11-24T19:22:16.270Z,35.92
2022-11-24T19:24:51.114Z,32.55
2022-11-24T19:27:23.994Z,34.58
2022-11-24T19:29:57.087Z,32.88
2022-11-24T19:32:31.663Z,28.98
2022-11-24T19:35:04.826Z,27.00
2022-11-24T19:37:37.646Z,28.50
2022-11-24T19:40:10.771Z,23.88
2022-11-24T19:42:43.382Z,23.63
2022-11-24T19:45:16.433Z,24.77
2022-11-24T19:47:48.956Z,24.48
2022-11-24T19:50:21.898Z,28.80
2022-11-24T19:52:54.892Z,31.77
2022-11-24T19:55:27.801Z,32.35
2022-11-24T19:58:00.419Z,31.90
2022-11-24T20:00:33.519Z,26.67
2022-11-24T20:03:06.362Z,28.90
2022-11-24T20:05:39.454Z,27.35
2022-11-24T20:08:12.368Z,26.67
2022-11-24T20:10:45.513Z,27.13
2022-11-24T20:13:18.071Z,26.67
2022-11-24T20:15:53.211Z,30.77
2022-11-24T20:18:27.473Z,33.20
2022-11-24T20:21:07.496Z,32.15
2022-11-24T20:23:40.660Z,34.28
2022-11-24T20:26:19.784Z,36.03
2022-11-24T20:28:53.963Z,36.72
2022-11-24T20:31:28.986Z,35.92
2022-11-24T20:34:02.479Z,37.47
2022-11-24T20:36:36.517Z,38.25
2022-11-24T20:39:12.716Z,39.95
2022-11-24T20:41:47.384Z,40.80
2022-11-24T20:44:21.786Z,44.50
2022-11-24T20:46:55.931Z,38.78
2022-11-24T20:49:29.247Z,41.43
2022-11-24T20:52:02.440Z,34.87
2022-11-24T20:54:35.507Z,31.97
2022-11-24T20:57:08.501Z,32.38
2022-11-24T20:59:41.067Z,30.90
2022-11-24T21:02:14.114Z,31.92
2022-11-24T21:04:47.027Z,32.10
2022-11-24T21:07:19.958Z,31.77
2022-11-24T21:09:53.116Z,31.77
2022-11-24T21:12:26.295Z,33.83
2022-11-24T21:14:59.145Z,35.78
2022-11-24T21:17:32.978Z,38.78
2022-11-24T21:20:06.032Z,33.35
2022-11-24T21:22:40.430Z,33.95
2022-11-24T21:25:12.942Z,32.55
2022-11-24T21:27:46.078Z,29.67
2022-11-24T21:30:18.548Z,29.02
2022-11-24T21:32:51.882Z,29.92
2022-11-24T21:35:26.255Z,31.20
2022-11-24T21:38:00.245Z,29.77
2022-11-24T21:40:32.760Z,32.90
2022-11-24T21:43:05.734Z,31.45
2022-11-24T21:45:38.337Z,33.07
2022-11-24T21:48:11.308Z,34.70
2022-11-24T21:50:43.856Z,35.50
2022-11-24T21:53:16.769Z,34.45
2022-11-24T21:55:59.525Z,31.75
2022-11-24T21:58:33.190Z,31.15
2022-11-24T22:01:09.095Z,31.38
2022-11-24T22:03:42.386Z,31.67
2022-11-24T22:06:15.799Z,33.07
2022-11-24T22:08:49.238Z,32.47
2022-11-24T22:11:23.159Z,31.00
2022-11-24T22:13:56.203Z,29.45
2022-11-24T22:16:28.828Z,32.70
2022-11-24T22:19:01.911Z,36.15
2022-11-24T22:21:35.040Z,33.28
2022-11-24T22:24:08.191Z,35.80
2022-11-24T22:26:40.809Z,30.70
2022-11-24T22:29:13.819Z,27.92
2022-11-24T22:31:46.440Z,25.17
2022-11-24T22:34:19.296Z,23.90
2022-11-24T22:36:51.798Z,25.77
2022-11-24T22:39:24.728Z,24.15
2022-11-24T22:41:57.259Z,24.00
2022-11-24T22:44:30.243Z,21.50
2022-11-24T22:47:02.845Z,21.83
2022-11-24T22:49:35.779Z,21.52
2022-11-24T22:52:08.447Z,21.13
2022-11-24T22:54:41.632Z,21.70
2022-11-24T22:57:14.161Z,20.98
2022-11-24T22:59:47.093Z,21.73
2022-11-24T23:02:19.637Z,21.58
2022-11-24T23:04:52.761Z,21.58
2022-11-24T23:07:25.470Z,19.23
2022-11-24T23:09:58.619Z,18.63
2022-11-24T23:12:31.241Z,20.85
2022-11-24T23:15:04.230Z,17.67
2022-11-24T23:17:37.292Z,16.47
2022-11-24T23:20:10.574Z,15.93
2022-11-24T23:22:43.166Z,14.23
2022-11-24T23:25:16.394Z,14.90
2022-11-24T23:27:49.080Z,15.38
2022-11-24T23:30:22.017Z,15.23
2022-11-24T23:32:54.761Z,16.33
2022-11-24T23:35:27.667Z,15.57
2022-11-24T23:38:07.470Z,16.17
2022-11-24T23:40:41.173Z,16.77
2022-11-24T23:43:13.753Z,16.20
2022-11-24T23:45:46.734Z,15.57
2022-11-24T23:48:20.628Z,15.50
2022-11-24T23:50:54.976Z,14.85
2022-11-24T23:53:30.987Z,15.43
2022-11-24T23:56:03.947Z,15.45
2022-11-24T23:58:36.538Z,14.63
